Portada
METAR-TAF:

METAR-TAF

Aeropuertos :

Base Naval de Rota

Rota, España

latitud: 36-39N, longitud: 006-21W, altitud: 26 m

Observación

El informe se hizo hace 24 minutos, a las 07:00 UTC
Viento 8 kt del sureste, variando entre este y sur-sureste
Temperatura 19°C
Humedad 78%
Presión 1015 hPa
Visibilidad 10 km o más
sin nubes por debajo de 1500 m y sin presencia de cumulonimbus.

METAR: LERT 250700Z 13008KT 090V160 CAVOK 19/15 Q1015 NOSIG

Hora: 09:24 (07:24 UTC)

Pronóstico

El informe se hizo hace 2 horas y 24 minutos, a las 05:00 UTC
Pronóstico válido del 25 a las 06 UTC al 25 a las 15 UTC
Viento 9 kt del sureste
Visibilidad 10 km o más
sin nubes por debajo de 1500 m y sin presencia de cumulonimbus.
Evolucionando progresivamente
del 25 a las 09 UTC al 25 a las 12 UTC
Viento 10 kt del oeste-suroeste

TAF: LERT 250500Z 2506/2515 13009KT CAVOK BECMG 2509/2512 25010KT

Observaciones y pronósticos meteorológicos de más de 4000 aeropuertos (mensajes METAR y TAF).

Los puntos amarillos y rojos representan las estaciones disponibles.

Ponga el ratón en el punto deseado para ver el nombre de la estación.

Haga clic para ver las observaciones y los pronósticos meteorológicos.

Para cambiar el mapa : haga clic en los botones verdes con una cruz de color negro para hacer un zoom, en el botón verde con un guión para alejar o en las flechas verdes para mapas adyacentes.


METAR-TAF: